Time;durP1;ratioP1;P1;durP2;ratioP2;P2;SDS_P1;SDS_P2;PMS_P1;PMS_P2;Temp;Humidity;BMP_temperature;BMP_pressure;BME280_temperature;BME280_humidity;BME280_pressure;Samples;Min_cycle;Max_cycle;Signal;HPM_P1;HPM_P2
2021/05/18 00:02:09;;;;;;;28.10;13.57;;;;;;;;;;5093609;28;20027;-49
2021/05/18 00:04:35;;;;;;;52.50;26.40;;;;;;;;;;5093639;28;20048;-49
2021/05/18 00:07:01;;;;;;;46.92;27.02;;;;;;;;;;5093532;28;20464;-48
2021/05/18 00:12:12;;;;;;;39.13;20.23;;;;;;;;;;5093306;28;20051;-50
2021/05/18 00:14:38;;;;;;;49.50;27.20;;;;;;;;;;5092115;28;20511;-48
2021/05/18 00:17:04;;;;;;;53.80;29.83;;;;;;;;;;5093439;28;20023;-50
2021/05/18 00:19:31;;;;;;;26.63;14.50;;;;;;;;;;5093323;28;20136;-50
2021/05/18 00:21:57;;;;;;;49.75;25.17;;;;;;;;;;5093403;28;20020;-50
2021/05/18 00:24:23;;;;;;;78.72;42.78;;;;;;;;;;5093414;28;20035;-49
2021/05/18 00:26:49;;;;;;;8.73;4.75;;;;;;;;;;5093135;28;20047;-49
2021/05/18 00:29:15;;;;;;;18.90;9.85;;;;;;;;;;5093368;28;20020;-50
2021/05/18 00:31:41;;;;;;;29.80;15.15;;;;;;;;;;5093195;28;20036;-50
2021/05/18 00:34:07;;;;;;;21.02;12.43;;;;;;;;;;5093337;28;20031;-49
2021/05/18 00:36:34;;;;;;;29.08;16.75;;;;;;;;;;5093329;28;20403;-49
2021/05/18 00:39:00;;;;;;;15.68;9.27;;;;;;;;;;5093111;28;20463;-49
2021/05/18 00:41:26;;;;;;;27.55;14.70;;;;;;;;;;5093057;28;20024;-50
2021/05/18 00:43:52;;;;;;;16.60;8.50;;;;;;;;;;5091636;28;20051;-50
2021/05/18 00:46:18;;;;;;;18.52;9.60;;;;;;;;;;5093202;28;20085;-46
2021/05/18 00:48:56;;;;;;;29.63;17.48;;;;;;;;;;5093208;28;20103;-49
2021/05/18 00:51:25;;;;;;;37.08;20.23;;;;;;;;;;5092980;28;20123;-48
2021/05/18 00:53:52;;;;;;;81.25;41.90;;;;;;;;;;5093087;28;20041;-48
2021/05/18 00:58:45;;;;;;;52.05;31.05;;;;;;;;;;5097074;28;20111;-46
2021/05/18 01:01:17;;;;;;;21.02;13.38;;;;;;;;;;5097154;28;20476;-49
2021/05/18 01:03:44;;;;;;;9.95;5.53;;;;;;;;;;5097134;28;20019;-49
2021/05/18 01:06:45;;;;;;;15.60;8.98;;;;;;;;;;5096875;28;20490;-49
2021/05/18 01:09:10;;;;;;;25.23;14.18;;;;;;;;;;5094647;28;20119;-48
2021/05/18 01:11:44;;;;;;;12.13;7.78;;;;;;;;;;5096445;28;20444;-46
2021/05/18 01:14:15;;;;;;;29.13;17.95;;;;;;;;;;5096706;28;20028;-48
2021/05/18 01:16:44;;;;;;;30.00;17.70;;;;;;;;;;5096623;28;20052;-49
2021/05/18 01:19:10;;;;;;;25.98;12.23;;;;;;;;;;5096689;28;20388;-48
2021/05/18 01:21:37;;;;;;;15.73;7.68;;;;;;;;;;5096641;28;20024;-48
2021/05/18 01:24:03;;;;;;;98.80;49.83;;;;;;;;;;5096863;28;20016;-49
2021/05/18 01:26:30;;;;;;;17.05;8.90;;;;;;;;;;5096544;28;20031;-46
2021/05/18 01:28:56;;;;;;;41.92;21.02;;;;;;;;;;5096514;28;20027;-49
2021/05/18 01:31:24;;;;;;;25.45;13.90;;;;;;;;;;5096409;28;20114;-47
2021/05/18 01:33:51;;;;;;;55.80;31.90;;;;;;;;;;5095874;28;20457;-49
2021/05/18 01:36:19;;;;;;;33.05;18.58;;;;;;;;;;5095870;28;20503;-50
2021/05/18 01:38:58;;;;;;;85.80;48.95;;;;;;;;;;5096581;28;20353;-48
2021/05/18 01:44:10;;;;;;;52.22;29.55;;;;;;;;;;5096110;28;20036;-47
2021/05/18 01:46:36;;;;;;;64.63;34.35;;;;;;;;;;5096242;28;20101;-50
2021/05/18 01:49:07;;;;;;;29.65;17.13;;;;;;;;;;5096142;28;20447;-49
2021/05/18 01:51:35;;;;;;;45.35;27.45;;;;;;;;;;5096050;28;20036;-49
2021/05/18 01:54:12;;;;;;;39.70;21.20;;;;;;;;;;5096081;28;20032;-50
2021/05/18 01:59:18;;;;;;;9.73;5.22;;;;;;;;;;5096180;28;20028;-49
2021/05/18 02:01:44;;;;;;;10.67;6.33;;;;;;;;;;5095964;28;20032;-48
2021/05/18 02:04:20;;;;;;;19.05;11.15;;;;;;;;;;5095969;28;20028;-48
2021/05/18 02:06:46;;;;;;;12.95;7.70;;;;;;;;;;5095958;28;20491;-49
2021/05/18 02:09:12;;;;;;;26.42;12.23;;;;;;;;;;5095005;28;20020;-49
2021/05/18 02:11:38;;;;;;;6.30;3.55;;;;;;;;;;5095382;28;20160;-50
2021/05/18 02:14:10;;;;;;;8.90;4.75;;;;;;;;;;5095779;28;20388;-50
2021/05/18 02:16:40;;;;;;;;;;;;;;;;;;5096336;28;20024;-49
2021/05/18 02:19:17;;;;;;;;;;;;;;;;;;5096037;28;19904;-49
2021/05/18 02:26:54;;;;;;;9.60;5.05;;;;;;;;;;5095621;28;20112;-49
2021/05/18 02:29:20;;;;;;;10.75;4.63;;;;;;;;;;5095626;28;20021;-50
2021/05/18 02:31:48;;;;;;;15.35;6.20;;;;;;;;;;5095461;28;20050;-50
2021/05/18 02:34:14;;;;;;;4.93;3.60;;;;;;;;;;5095423;28;20144;-49
2021/05/18 02:36:40;;;;;;;4.03;2.10;;;;;;;;;;5095231;28;20111;-49
2021/05/18 02:39:09;;;;;;;9.75;2.95;;;;;;;;;;5095487;28;20379;-49
2021/05/18 02:41:35;;;;;;;38.15;21.65;;;;;;;;;;5095046;28;20025;-49
2021/05/18 02:44:09;;;;;;;14.18;8.93;;;;;;;;;;5095268;28;20028;-49
2021/05/18 02:49:24;;;;;;;12.98;5.07;;;;;;;;;;5095082;28;20032;-50
2021/05/18 02:51:51;;;;;;;11.82;6.63;;;;;;;;;;5095014;28;20111;-49
2021/05/18 02:54:24;;;;;;;8.43;5.53;;;;;;;;;;5094854;28;20026;-49
2021/05/18 02:56:57;;;;;;;10.05;6.32;;;;;;;;;;5095088;28;20089;-48
2021/05/18 02:59:23;;;;;;;8.85;5.95;;;;;;;;;;5094728;28;20024;-49
2021/05/18 03:01:51;;;;;;;41.35;19.67;;;;;;;;;;5094733;28;20020;-50
2021/05/18 03:04:18;;;;;;;28.35;16.90;;;;;;;;;;5094861;28;20031;-49
2021/05/18 03:06:47;;;;;;;33.13;18.95;;;;;;;;;;5094629;28;20024;-50
2021/05/18 03:09:14;;;;;;;19.10;11.75;;;;;;;;;;5094669;28;20392;-50
2021/05/18 03:11:41;;;;;;;20.95;10.60;;;;;;;;;;5094102;28;20587;-49
2021/05/18 03:14:08;;;;;;;22.65;14.07;;;;;;;;;;5094585;28;20024;-48
2021/05/18 03:16:36;;;;;;;21.73;12.23;;;;;;;;;;5094550;28;20492;-48
2021/05/18 03:19:02;;;;;;;13.63;7.88;;;;;;;;;;5094152;28;20024;-50
2021/05/18 03:21:28;;;;;;;20.45;10.02;;;;;;;;;;5093579;28;20573;-49
2021/05/18 03:23:54;;;;;;;11.13;6.53;;;;;;;;;;5094392;28;20035;-49
2021/05/18 03:26:20;;;;;;;5.68;3.20;;;;;;;;;;5094450;28;20085;-48
2021/05/18 03:28:53;;;;;;;12.68;6.18;;;;;;;;;;5094284;28;20512;-50
2021/05/18 03:36:57;;;;;;;12.57;7.10;;;;;;;;;;5071829;28;20567;-49
2021/05/18 03:39:23;;;;;;;8.63;3.95;;;;;;;;;;5071708;28;20048;-50
2021/05/18 03:44:33;;;;;;;6.70;2.90;;;;;;;;;;5071601;28;20455;-51
2021/05/18 03:52:31;;;;;;;5.45;2.50;;;;;;;;;;5071965;28;20051;-50
2021/05/18 04:16:59;;;;;;;7.28;4.00;;;;;;;;;;4992381;28;20398;-50
2021/05/18 04:19:33;;;;;;;5.50;2.63;;;;;;;;;;4991834;28;20022;-50
2021/05/18 04:25:18;;;;;;;10.00;4.53;;;;;;;;;;4991863;28;20177;-50
2021/05/18 04:38:49;;;;;;;20.52;13.02;;;;;;;;;;4991795;28;20037;-49
2021/05/18 05:00:22;;;;;;;10.30;5.03;;;;;;;;;;5070976;28;20039;-49
2021/05/18 05:08:25;;;;;;;5.60;3.65;;;;;;;;;;5071021;28;20098;-49
2021/05/18 05:16:04;;;;;;;5.15;3.03;;;;;;;;;;5070594;28;20031;-50
2021/05/18 05:18:31;;;;;;;9.50;3.10;;;;;;;;;;5070572;28;20063;-50
2021/05/18 05:20:57;;;;;;;3.47;2.50;;;;;;;;;;5070519;28;20120;-48
2021/05/18 05:23:23;;;;;;;5.20;2.25;;;;;;;;;;5070502;28;20505;-49
2021/05/18 05:25:49;;;;;;;3.25;1.95;;;;;;;;;;5070295;28;20039;-49
2021/05/18 05:28:15;;;;;;;5.28;2.70;;;;;;;;;;5070478;28;20043;-48
2021/05/18 05:30:42;;;;;;;6.57;2.45;;;;;;;;;;5070881;28;20044;-50
2021/05/18 05:33:08;;;;;;;12.23;6.00;;;;;;;;;;5092836;28;20035;-49
2021/05/18 05:35:34;;;;;;;3.63;1.80;;;;;;;;;;5092718;28;20020;-50
2021/05/18 05:38:00;;;;;;;3.42;2.00;;;;;;;;;;5092669;28;20028;-49
2021/05/18 05:40:26;;;;;;;3.17;1.45;;;;;;;;;;5092618;28;20032;-50
2021/05/18 05:42:52;;;;;;;6.25;1.98;;;;;;;;;;5092679;28;20467;-49
2021/05/18 05:45:18;;;;;;;2.38;1.40;;;;;;;;;;5096241;28;20028;-50
2021/05/18 05:47:45;;;;;;;4.45;2.00;;;;;;;;;;5096203;28;20081;-49
2021/05/18 05:50:11;;;;;;;6.30;2.40;;;;;;;;;;5096124;28;20022;-56
2021/05/18 05:52:38;;;;;;;5.50;1.33;;;;;;;;;;5096124;28;20036;-50
2021/05/18 05:55:05;;;;;;;5.00;1.60;;;;;;;;;;5094658;28;20396;-50
2021/05/18 05:57:31;;;;;;;2.83;1.50;;;;;;;;;;5095873;28;20027;-49
2021/05/18 05:59:57;;;;;;;8.20;2.50;;;;;;;;;;5095800;28;20464;-49
2021/05/18 06:02:23;;;;;;;5.15;1.42;;;;;;;;;;5095777;28;20093;-48
2021/05/18 06:04:49;;;;;;;7.55;2.28;;;;;;;;;;5096046;28;20034;-49
2021/05/18 06:07:15;;;;;;;2.10;0.93;;;;;;;;;;5095870;28;20028;-50
2021/05/18 06:09:41;;;;;;;4.43;1.25;;;;;;;;;;5095832;28;20027;-49
2021/05/18 06:50:09;;;;;;;20.27;9.80;;;;;;;;;;5095485;28;20027;-49
2021/05/18 06:52:35;;;;;;;48.33;28.83;;;;;;;;;;5094925;28;20063;-50
2021/05/18 06:55:03;;;;;;;65.53;34.00;;;;;;;;;;5094739;28;20026;-50
2021/05/18 06:57:31;;;;;;;50.08;26.83;;;;;;;;;;5095048;28;20031;-51
2021/05/18 07:00:08;;;;;;;27.17;16.35;;;;;;;;;;5094843;28;20028;-50
2021/05/18 07:02:35;;;;;;;6.22;2.72;;;;;;;;;;5094789;28;20020;-50
2021/05/18 07:05:01;;;;;;;5.38;3.72;;;;;;;;;;5094763;28;20043;-49
2021/05/18 07:07:32;;;;;;;10.82;5.78;;;;;;;;;;5094582;28;20024;-49
2021/05/18 07:09:58;;;;;;;8.02;4.68;;;;;;;;;;5094522;28;20132;-48
2021/05/18 07:12:24;;;;;;;10.88;3.85;;;;;;;;;;5094312;28;20478;-49
2021/05/18 07:14:50;;;;;;;11.40;6.40;;;;;;;;;;5094596;28;20027;-48
2021/05/18 07:17:16;;;;;;;9.93;3.95;;;;;;;;;;5094659;28;20032;-48
2021/05/18 07:19:43;;;;;;;6.88;3.13;;;;;;;;;;5094389;28;20077;-49
2021/05/18 07:22:10;;;;;;;19.10;5.20;;;;;;;;;;5094499;28;20027;-49
2021/05/18 07:24:36;;;;;;;9.88;5.15;;;;;;;;;;5094411;28;20479;-50
2021/05/18 07:27:03;;;;;;;18.70;10.98;;;;;;;;;;5094565;28;20357;-48
2021/05/18 07:29:29;;;;;;;10.48;6.25;;;;;;;;;;5094180;28;20035;-50
2021/05/18 07:31:55;;;;;;;13.32;7.05;;;;;;;;;;5093677;28;20044;-49
2021/05/18 07:34:21;;;;;;;9.32;5.28;;;;;;;;;;5093395;28;20383;-49
2021/05/18 07:36:48;;;;;;;17.17;5.85;;;;;;;;;;5093641;28;20020;-50
2021/05/18 07:39:14;;;;;;;7.70;4.05;;;;;;;;;;5093857;28;20016;-52
2021/05/18 07:41:40;;;;;;;21.88;10.98;;;;;;;;;;5093284;28;20476;-50
2021/05/18 07:44:06;;;;;;;12.27;6.80;;;;;;;;;;5093452;28;20391;-49
2021/05/18 07:46:33;;;;;;;16.30;8.07;;;;;;;;;;5093747;28;20039;-50
2021/05/18 08:00:20;;;;;;;22.27;8.45;;;;;;;;;;5050884;28;20029;-50
2021/05/18 08:05:31;;;;;;;55.88;26.75;;;;;;;;;;5047759;28;20029;-47
2021/05/18 08:07:57;;;;;;;26.10;15.48;;;;;;;;;;5050589;28;20035;-47
2021/05/18 08:12:50;;;;;;;32.15;17.98;;;;;;;;;;5050686;28;20052;-45
2021/05/18 08:59:06;;;;;;;18.58;8.68;;;;;;;;;;5073127;28;20503;-47
2021/05/18 09:48:47;;;;;;;5.35;0.95;;;;;;;;;;5076361;28;20039;-47
2021/05/18 10:14:32;;;;;;;4.53;0.98;;;;;;;;;;5089188;22;20140;-54
2021/05/18 10:34:24;;;;;;;1.75;0.60;;;;;;;;;;5075836;28;20038;-57
2021/05/18 10:36:50;;;;;;;3.30;0.90;;;;;;;;;;5075399;28;20017;-54
2021/05/18 10:39:20;;;;;;;3.13;0.55;;;;;;;;;;5075317;28;20028;-54
2021/05/18 10:41:46;;;;;;;8.40;0.95;;;;;;;;;;5075109;28;20095;-54
2021/05/18 10:44:13;;;;;;;2.38;0.77;;;;;;;;;;5075203;28;20107;-57
2021/05/18 10:46:49;;;;;;;1.63;0.50;;;;;;;;;;5075165;28;20075;-65
2021/05/18 10:49:20;;;;;;;2.72;0.73;;;;;;;;;;5075197;28;20032;-65
2021/05/18 10:51:46;;;;;;;12.35;1.17;;;;;;;;;;5074784;28;20052;-65
2021/05/18 10:54:14;;;;;;;2.00;0.90;;;;;;;;;;5074969;28;20020;-64
2021/05/18 10:57:00;;;;;;;1.90;0.77;;;;;;;;;;5075028;28;20025;-65
2021/05/18 10:59:29;;;;;;;5.18;0.50;;;;;;;;;;5074766;28;20028;-65
2021/05/18 11:02:07;;;;;;;1.42;0.45;;;;;;;;;;5074791;28;20472;-64
2021/05/18 11:04:37;;;;;;;0.95;0.55;;;;;;;;;;5074830;28;20039;-59
2021/05/18 11:07:04;;;;;;;4.43;0.43;;;;;;;;;;5074696;28;20036;-54
2021/05/18 11:09:31;;;;;;;11.48;0.70;;;;;;;;;;5074820;28;20024;-55
2021/05/18 11:11:58;;;;;;;0.52;0.40;;;;;;;;;;5074814;28;20051;-62
2021/05/18 11:14:39;;;;;;;6.80;0.70;;;;;;;;;;5074493;28;20410;-55
2021/05/18 11:17:06;;;;;;;30.77;2.33;;;;;;;;;;5074501;28;20372;-64
2021/05/18 11:19:45;;;;;;;2.35;0.63;;;;;;;;;;5074318;28;20027;-58
2021/05/18 11:22:11;;;;;;;10.10;1.10;;;;;;;;;;5074273;28;20028;-54
2021/05/18 11:24:46;;;;;;;2.08;0.70;;;;;;;;;;5074384;28;20225;-53
2021/05/18 11:27:12;;;;;;;3.15;0.85;;;;;;;;;;5074310;28;20098;-53
2021/05/18 11:29:39;;;;;;;4.93;0.70;;;;;;;;;;5074132;28;20099;-54
2021/05/18 11:32:11;;;;;;;6.95;0.73;;;;;;;;;;5074020;28;20040;-56
2021/05/18 11:34:50;;;;;;;4.25;0.70;;;;;;;;;;5055522;28;20037;-53
2021/05/18 11:37:19;;;;;;;3.08;0.95;;;;;;;;;;5074108;28;20048;-63
2021/05/18 11:39:45;;;;;;;4.82;2.10;;;;;;;;;;5073998;28;20021;-53
2021/05/18 11:42:11;;;;;;;4.47;0.60;;;;;;;;;;5073275;28;20074;-59
2021/05/18 11:44:41;;;;;;;1.92;0.75;;;;;;;;;;5073867;28;20103;-64
2021/05/18 11:47:07;;;;;;;6.55;0.43;;;;;;;;;;5073877;28;20111;-55
2021/05/18 11:49:33;;;;;;;0.63;0.35;;;;;;;;;;5073998;28;20042;-66
2021/05/18 11:52:00;;;;;;;4.10;0.40;;;;;;;;;;5073537;28;20049;-59
2021/05/18 11:54:27;;;;;;;7.47;0.75;;;;;;;;;;5074021;28;20021;-63
2021/05/18 11:56:54;;;;;;;1.17;0.60;;;;;;;;;;5073784;28;20024;-55
2021/05/18 11:59:21;;;;;;;3.33;0.50;;;;;;;;;;5073637;28;20031;-56
2021/05/18 12:01:53;;;;;;;3.28;1.00;;;;;;;;;;5074045;28;20032;-64
2021/05/18 12:04:21;;;;;;;4.07;1.23;;;;;;;;;;5073827;28;20483;-58
2021/05/18 12:07:14;;;;;;;1.02;0.50;;;;;;;;;;5073681;28;20036;-56
2021/05/18 12:09:41;;;;;;;15.15;1.05;;;;;;;;;;5071719;28;20036;-61
2021/05/18 12:12:08;;;;;;;3.35;0.82;;;;;;;;;;5073353;28;20033;-62
2021/05/18 12:14:54;;;;;;;7.38;0.63;;;;;;;;;;5073480;28;20025;-56
2021/05/18 12:17:31;;;;;;;1.25;0.43;;;;;;;;;;5073606;28;20024;-65
2021/05/18 12:20:00;;;;;;;3.03;0.70;;;;;;;;;;5073379;28;20024;-66
2021/05/18 12:22:27;;;;;;;0.60;0.40;;;;;;;;;;5073545;28;20017;-65
2021/05/18 12:24:55;;;;;;;0.77;0.30;;;;;;;;;;5055429;28;20024;-66
2021/05/18 12:27:21;;;;;;;1.75;0.50;;;;;;;;;;5073379;28;20016;-66
2021/05/18 12:29:51;;;;;;;0.82;0.50;;;;;;;;;;5073407;28;20025;-65
2021/05/18 12:32:35;;;;;;;3.03;0.60;;;;;;;;;;5073289;28;20033;-65
2021/05/18 12:35:04;;;;;;;2.17;0.40;;;;;;;;;;5073385;28;20104;-55
2021/05/18 12:37:43;;;;;;;4.65;0.60;;;;;;;;;;5073564;28;20040;-58
2021/05/18 12:40:14;;;;;;;2.35;0.80;;;;;;;;;;5073456;28;20096;-54
2021/05/18 12:42:40;;;;;;;5.05;0.50;;;;;;;;;;5073544;28;20020;-59
2021/05/18 12:45:11;;;;;;;1.40;0.88;;;;;;;;;;5073171;28;20082;-61
2021/05/18 12:47:40;;;;;;;3.85;0.47;;;;;;;;;;5073232;28;20021;-57
2021/05/18 12:50:10;;;;;;;10.15;0.98;;;;;;;;;;5072927;28;20031;-60
2021/05/18 12:52:40;;;;;;;9.02;1.42;;;;;;;;;;5074508;28;20037;-55
2021/05/18 12:55:29;;;;;;;1.83;1.33;;;;;;;;;;5077294;28;20376;-54
2021/05/18 12:58:05;;;;;;;5.43;1.00;;;;;;;;;;5034984;28;20072;-56
2021/05/18 13:00:38;;;;;;;3.50;1.20;;;;;;;;;;5033591;28;20088;-56
2021/05/18 13:03:16;;;;;;;12.65;2.47;;;;;;;;;;5033377;28;20036;-61
2021/05/18 13:05:44;;;;;;;6.15;1.75;;;;;;;;;;5031875;28;20052;-60
2021/05/18 13:08:13;;;;;;;48.55;27.73;;;;;;;;;;5032882;28;20539;-59
2021/05/18 13:13:29;;;;;;;123.80;75.30;;;;;;;;;;5012554;28;20478;-58
2021/05/18 13:16:09;;;;;;;57.38;30.50;;;;;;;;;;5013460;28;20408;-56
2021/05/18 13:18:35;;;;;;;39.07;23.03;;;;;;;;;;5010809;28;20505;-56
2021/05/18 13:21:01;;;;;;;65.05;30.15;;;;;;;;;;5013184;28;20490;-57
2021/05/18 13:28:46;;;;;;;519.25;389.98;;;;;;;;;;5012675;28;20033;-57
2021/05/18 13:31:12;;;;;;;161.20;104.35;;;;;;;;;;5014100;28;20030;-60
2021/05/18 13:33:38;;;;;;;71.15;39.65;;;;;;;;;;5013650;28;20041;-56
2021/05/18 13:36:07;;;;;;;28.20;16.35;;;;;;;;;;5032093;28;20103;-55
2021/05/18 13:38:34;;;;;;;42.92;21.75;;;;;;;;;;5032911;28;20544;-50
2021/05/18 13:41:01;;;;;;;82.10;52.97;;;;;;;;;;5032672;28;20025;-57
2021/05/18 13:43:32;;;;;;;4.82;2.47;;;;;;;;;;5032711;28;20108;-58
2021/05/18 13:46:01;;;;;;;7.60;3.40;;;;;;;;;;5027572;28;20048;-53
2021/05/18 13:48:27;;;;;;;7.47;2.38;;;;;;;;;;5031907;28;20485;-54
2021/05/18 13:50:53;;;;;;;10.05;5.22;;;;;;;;;;5049504;28;20067;-57
2021/05/18 13:53:19;;;;;;;7.78;2.63;;;;;;;;;;5075004;28;20028;-56
2021/05/18 13:55:47;;;;;;;1.25;0.90;;;;;;;;;;5074733;28;20047;-53
2021/05/18 13:58:13;;;;;;;1.17;0.60;;;;;;;;;;5074784;28;20384;-56
2021/05/18 14:00:41;;;;;;;4.22;2.30;;;;;;;;;;5074924;28;20024;-55
2021/05/18 14:03:07;;;;;;;9.75;5.85;;;;;;;;;;5074588;28;20504;-54
2021/05/18 14:05:33;;;;;;;38.17;18.25;;;;;;;;;;5073926;28;20559;-53
2021/05/18 14:10:44;;;;;;;50.97;32.83;;;;;;;;;;5072984;28;20043;-53
2021/05/18 14:13:11;;;;;;;92.25;62.40;;;;;;;;;;5056401;28;20027;-54
2021/05/18 14:15:37;;;;;;;92.88;66.10;;;;;;;;;;5074295;28;20023;-52
2021/05/18 14:18:03;;;;;;;42.08;30.17;;;;;;;;;;5073987;28;20016;-53
2021/05/18 14:20:29;;;;;;;34.78;25.27;;;;;;;;;;5074020;28;20031;-48
2021/05/18 14:22:55;;;;;;;104.28;49.17;;;;;;;;;;5071417;28;20016;-51
2021/05/18 14:25:21;;;;;;;10.02;4.65;;;;;;;;;;5074976;28;20032;-50
2021/05/18 14:27:47;;;;;;;23.42;7.05;;;;;;;;;;5075484;28;20078;-49
2021/05/18 14:30:14;;;;;;;101.20;8.20;;;;;;;;;;5075624;28;20028;-52
2021/05/18 14:32:41;;;;;;;39.78;11.85;;;;;;;;;;5075204;28;20043;-51
2021/05/18 14:35:08;;;;;;;24.10;14.13;;;;;;;;;;5075270;28;20108;-54
2021/05/18 14:37:34;;;;;;;27.60;14.80;;;;;;;;;;5075134;28;20541;-56
2021/05/18 14:40:06;;;;;;;38.00;15.52;;;;;;;;;;5075046;28;20024;-55
2021/05/18 14:42:53;;;;;;;19.67;9.27;;;;;;;;;;5075109;28;20024;-55
2021/05/18 14:45:23;;;;;;;94.40;59.15;;;;;;;;;;5074907;28;20475;-54
2021/05/18 14:56:01;;;;;;;148.57;87.55;;;;;;;;;;5075081;28;20381;-55
2021/05/18 14:58:27;;;;;;;68.05;40.60;;;;;;;;;;5056903;28;20111;-54
2021/05/18 15:00:54;;;;;;;30.90;16.08;;;;;;;;;;5047418;28;20020;-55
2021/05/18 15:03:22;;;;;;;18.35;10.13;;;;;;;;;;5047284;28;20052;-57
2021/05/18 15:05:48;;;;;;;31.75;16.33;;;;;;;;;;5047531;28;20161;-55
2021/05/18 15:08:14;;;;;;;8.18;5.53;;;;;;;;;;5047204;28;20029;-56
2021/05/18 15:10:41;;;;;;;12.77;7.28;;;;;;;;;;5047560;28;20222;-55
2021/05/18 15:13:08;;;;;;;7.63;4.47;;;;;;;;;;5047036;28;20423;-53
2021/05/18 15:15:34;;;;;;;7.95;4.63;;;;;;;;;;5046919;28;20021;-54
2021/05/18 15:18:01;;;;;;;6.57;1.92;;;;;;;;;;5047306;28;20188;-54
2021/05/18 15:20:27;;;;;;;9.70;2.35;;;;;;;;;;5046797;28;20225;-53
2021/05/18 15:22:54;;;;;;;4.03;1.20;;;;;;;;;;5047195;28;20038;-53
2021/05/18 15:25:21;;;;;;;8.50;1.77;;;;;;;;;;5046589;28;20054;-56
2021/05/18 15:27:48;;;;;;;3.55;0.90;;;;;;;;;;5046528;28;20148;-55
2021/05/18 15:30:14;;;;;;;2.55;0.52;;;;;;;;;;5027165;28;21169;-53
2021/05/18 15:32:40;;;;;;;4.05;1.15;;;;;;;;;;5046364;28;20074;-55
2021/05/18 15:35:08;;;;;;;1.60;0.75;;;;;;;;;;5046810;28;20526;-54
2021/05/18 15:37:36;;;;;;;2.40;0.65;;;;;;;;;;5046746;28;20077;-55
2021/05/18 15:40:04;;;;;;;0.80;0.55;;;;;;;;;;5046885;28;20024;-53
2021/05/18 15:42:30;;;;;;;1.83;0.60;;;;;;;;;;5046046;28;20035;-55
2021/05/18 15:44:56;;;;;;;4.20;0.77;;;;;;;;;;5046613;28;20020;-53
2021/05/18 15:47:22;;;;;;;4.07;0.88;;;;;;;;;;5028041;28;20764;-54
2021/05/18 15:49:48;;;;;;;2.50;0.43;;;;;;;;;;5045793;28;20024;-54
2021/05/18 15:52:17;;;;;;;1.85;0.73;;;;;;;;;;5023719;28;20045;-55
2021/05/18 15:54:43;;;;;;;2.42;0.50;;;;;;;;;;5026029;28;20087;-55
2021/05/18 15:57:10;;;;;;;0.82;0.65;;;;;;;;;;5026019;28;20017;-54
2021/05/18 15:59:36;;;;;;;4.72;0.85;;;;;;;;;;5026092;28;20488;-54
2021/05/18 16:02:02;;;;;;;5.57;1.70;;;;;;;;;;5025415;28;20043;-55
2021/05/18 16:04:28;;;;;;;1.40;1.00;;;;;;;;;;5026281;28;20053;-55
2021/05/18 16:06:56;;;;;;;1.88;0.57;;;;;;;;;;5025652;28;20363;-54
2021/05/18 16:09:22;;;;;;;8.85;5.13;;;;;;;;;;5026506;28;20422;-55
2021/05/18 16:11:48;;;;;;;79.60;45.65;;;;;;;;;;5026243;28;20057;-55
2021/05/18 16:14:15;;;;;;;10.02;5.50;;;;;;;;;;5026267;28;20033;-54
2021/05/18 16:16:41;;;;;;;61.10;37.53;;;;;;;;;;5026336;28;20135;-56
2021/05/18 16:19:07;;;;;;;25.20;14.73;;;;;;;;;;5026158;28;20029;-56
2021/05/18 16:21:33;;;;;;;42.97;24.38;;;;;;;;;;5025990;28;20024;-56
2021/05/18 16:23:59;;;;;;;89.57;53.47;;;;;;;;;;5025981;28;20500;-54
2021/05/18 16:26:29;;;;;;;64.45;42.45;;;;;;;;;;5025950;28;20029;-53
2021/05/18 16:28:56;;;;;;;52.72;34.05;;;;;;;;;;5025806;28;20350;-54
2021/05/18 16:31:22;;;;;;;27.05;18.80;;;;;;;;;;5026208;28;20036;-57
2021/05/18 16:33:51;;;;;;;9.60;4.22;;;;;;;;;;5025925;28;20040;-56
2021/05/18 16:36:17;;;;;;;9.52;5.82;;;;;;;;;;5026189;28;20017;-56
2021/05/18 16:38:46;;;;;;;68.10;38.75;;;;;;;;;;5026046;28;20386;-56
2021/05/18 16:41:12;;;;;;;110.85;66.55;;;;;;;;;;5026175;28;20555;-54
2021/05/18 16:43:39;;;;;;;30.48;19.58;;;;;;;;;;5026046;28;20037;-56
2021/05/18 16:46:07;;;;;;;26.55;13.85;;;;;;;;;;5025994;28;20032;-55
2021/05/18 16:48:33;;;;;;;25.35;15.40;;;;;;;;;;5026118;28;20060;-54
2021/05/18 16:51:03;;;;;;;28.05;17.67;;;;;;;;;;5034033;28;20161;-54
2021/05/18 16:53:31;;;;;;;76.10;43.85;;;;;;;;;;5045928;28;20075;-54
2021/05/18 16:55:57;;;;;;;29.35;11.93;;;;;;;;;;5045665;28;20023;-54
2021/05/18 16:58:23;;;;;;;54.45;37.08;;;;;;;;;;5045601;28;20028;-55
2021/05/18 17:00:49;;;;;;;21.05;13.25;;;;;;;;;;5045928;28;20025;-56
2021/05/18 17:03:15;;;;;;;83.35;50.75;;;;;;;;;;5045757;28;20547;-54
2021/05/18 17:05:42;;;;;;;92.65;53.63;;;;;;;;;;5045462;28;20063;-57
2021/05/18 17:08:12;;;;;;;56.63;34.75;;;;;;;;;;5045832;28;20025;-53
2021/05/18 17:10:40;;;;;;;10.38;4.70;;;;;;;;;;5045781;28;20643;-55
2021/05/18 17:13:06;;;;;;;18.42;8.98;;;;;;;;;;5045628;28;20543;-55
2021/05/18 17:15:33;;;;;;;7.95;3.80;;;;;;;;;;5045828;28;20164;-55
2021/05/18 17:17:59;;;;;;;4.85;2.60;;;;;;;;;;5045411;28;20029;-55
2021/05/18 17:20:29;;;;;;;11.60;4.70;;;;;;;;;;5045296;28;20024;-55
2021/05/18 17:22:55;;;;;;;16.27;7.50;;;;;;;;;;5045804;28;20109;-55
2021/05/18 17:25:22;;;;;;;48.72;22.33;;;;;;;;;;5045663;28;20024;-55
2021/05/18 17:27:48;;;;;;;30.70;14.38;;;;;;;;;;5045453;28;20627;-54
2021/05/18 17:30:15;;;;;;;34.88;18.92;;;;;;;;;;5045046;28;20464;-53
2021/05/18 17:32:42;;;;;;;28.48;14.00;;;;;;;;;;5045669;28;20116;-54
2021/05/18 17:35:08;;;;;;;24.50;11.63;;;;;;;;;;5045053;28;20486;-53
2021/05/18 17:37:34;;;;;;;19.65;9.90;;;;;;;;;;5045798;28;20028;-53
2021/05/18 17:40:01;;;;;;;38.78;15.50;;;;;;;;;;5048501;28;20143;-53
2021/05/18 17:42:27;;;;;;;36.45;16.70;;;;;;;;;;5049036;28;20028;-53
2021/05/18 17:45:02;;;;;;;26.33;14.55;;;;;;;;;;5048814;28;20144;-53
2021/05/18 17:47:31;;;;;;;38.35;18.27;;;;;;;;;;5048728;28;20058;-55
2021/05/18 17:49:57;;;;;;;26.33;9.57;;;;;;;;;;5048754;28;20645;-54
2021/05/18 17:52:23;;;;;;;17.40;6.55;;;;;;;;;;5048692;28;20040;-54
2021/05/18 17:54:49;;;;;;;31.55;10.27;;;;;;;;;;5048637;28;20025;-55
2021/05/18 17:57:16;;;;;;;30.13;10.90;;;;;;;;;;5048888;28;20024;-54
2021/05/18 17:59:42;;;;;;;25.88;12.32;;;;;;;;;;5048603;28;20029;-54
2021/05/18 18:02:09;;;;;;;63.00;41.38;;;;;;;;;;5048746;28;20361;-55
2021/05/18 18:04:38;;;;;;;31.20;16.20;;;;;;;;;;5048329;28;21141;-55
2021/05/18 18:07:06;;;;;;;18.27;6.75;;;;;;;;;;5048624;28;20795;-54
2021/05/18 18:09:38;;;;;;;11.68;6.05;;;;;;;;;;5048608;28;20090;-54
2021/05/18 18:12:05;;;;;;;11.75;4.30;;;;;;;;;;5048232;28;20067;-55
2021/05/18 18:14:31;;;;;;;18.98;6.88;;;;;;;;;;5048374;28;20555;-54
2021/05/18 18:16:58;;;;;;;28.00;10.88;;;;;;;;;;5048259;28;20851;-54
2021/05/18 18:19:25;;;;;;;24.55;8.98;;;;;;;;;;5048135;28;20055;-55
2021/05/18 18:21:52;;;;;;;16.20;4.85;;;;;;;;;;5048372;28;20089;-55
2021/05/18 18:24:18;;;;;;;19.92;5.00;;;;;;;;;;5048187;28;20448;-54
2021/05/18 18:26:44;;;;;;;17.08;5.95;;;;;;;;;;5048106;28;20175;-53
2021/05/18 18:29:10;;;;;;;16.02;4.15;;;;;;;;;;5047588;28;20031;-52
2021/05/18 18:31:36;;;;;;;11.57;3.38;;;;;;;;;;5047875;28;20039;-53
2021/05/18 18:34:02;;;;;;;14.07;2.92;;;;;;;;;;5047905;28;20323;-53
2021/05/18 18:36:28;;;;;;;12.52;3.75;;;;;;;;;;5048019;28;20847;-54
2021/05/18 18:38:54;;;;;;;8.77;2.92;;;;;;;;;;5047925;28;20129;-53
2021/05/18 18:41:21;;;;;;;11.50;2.58;;;;;;;;;;5047721;28;20027;-50
2021/05/18 18:43:47;;;;;;;13.68;2.05;;;;;;;;;;5048292;28;20697;-50
2021/05/18 18:46:13;;;;;;;23.67;3.42;;;;;;;;;;5047757;28;20082;-55
2021/05/18 18:48:40;;;;;;;9.65;3.45;;;;;;;;;;5047493;28;20035;-54
2021/05/18 18:51:19;;;;;;;12.70;4.38;;;;;;;;;;5046675;28;20106;-53
2021/05/18 18:53:47;;;;;;;17.00;7.22;;;;;;;;;;5047301;28;20048;-55
2021/05/18 18:56:16;;;;;;;13.40;4.55;;;;;;;;;;5047839;28;20013;-53
2021/05/18 18:58:43;;;;;;;53.03;7.68;;;;;;;;;;5047444;28;20032;-53
2021/05/18 19:01:10;;;;;;;15.07;4.25;;;;;;;;;;5047087;28;20078;-54
2021/05/18 19:03:40;;;;;;;21.25;3.58;;;;;;;;;;5047235;28;20024;-53
2021/05/18 19:14:07;;;;;;;36.88;9.65;;;;;;;;;;5046961;28;20404;-54
2021/05/18 19:16:44;;;;;;;34.47;15.48;;;;;;;;;;5046999;28;20024;-55
2021/05/18 19:19:17;;;;;;;25.20;9.57;;;;;;;;;;5047269;28;20024;-51
2021/05/18 19:21:48;;;;;;;52.95;22.27;;;;;;;;;;5046935;28;20113;-53
2021/05/18 19:24:14;;;;;;;27.95;9.93;;;;;;;;;;5046740;28;20147;-54
2021/05/18 19:26:41;;;;;;;69.28;33.28;;;;;;;;;;5047266;28;20035;-51
2021/05/18 19:29:07;;;;;;;35.28;11.95;;;;;;;;;;5046717;28;20121;-55
2021/05/18 19:31:34;;;;;;;61.63;29.52;;;;;;;;;;5047001;28;20136;-55
2021/05/18 19:34:00;;;;;;;45.70;22.08;;;;;;;;;;5028945;28;20024;-54
2021/05/18 19:36:40;;;;;;;41.80;15.60;;;;;;;;;;5047144;28;20024;-55
2021/05/18 19:50:23;;;;;;;46.70;26.02;;;;;;;;;;5046694;28;20035;-54
2021/05/18 19:52:24;;;;;;;46.25;20.60;;;;;;;;;;5035555;28;20135;-54
2021/05/18 19:54:52;;;;;;;55.72;24.35;;;;;;;;;;5046934;28;20355;-52
2021/05/18 19:57:23;;;;;;;46.35;20.58;;;;;;;;;;5046320;28;20509;-53
2021/05/18 20:21:40;;;;;;;21.92;8.50;;;;;;;;;;4982006;28;20100;-53